createdAt,value
2022-10-13T00:00:56.549Z,9.97
2022-10-13T00:03:23.355Z,9.95
2022-10-13T00:05:51.185Z,9.94
2022-10-13T00:08:20.279Z,9.93
2022-10-13T00:10:49.348Z,9.93
2022-10-13T00:13:16.352Z,9.94
2022-10-13T00:15:45.268Z,9.91
2022-10-13T00:18:12.202Z,9.91
2022-10-13T00:20:48.324Z,9.92
2022-10-13T00:23:15.471Z,9.91
2022-10-13T00:25:48.914Z,9.94
2022-10-13T00:28:17.511Z,9.94
2022-10-13T00:30:43.945Z,9.90
2022-10-13T00:33:11.533Z,9.92
2022-10-13T00:35:46.447Z,9.90
2022-10-13T00:38:13.355Z,9.90
2022-10-13T00:40:48.809Z,9.93
2022-10-13T00:43:21.115Z,9.96
2022-10-13T00:45:50.654Z,9.96
2022-10-13T00:48:20.929Z,10.00
2022-10-13T00:50:48.476Z,10.00
2022-10-13T00:53:16.684Z,9.95
2022-10-13T00:55:44.338Z,9.95
2022-10-13T00:58:16.059Z,9.94
2022-10-13T01:00:48.223Z,9.92
2022-10-13T01:03:15.038Z,9.89
2022-10-13T01:05:42.220Z,9.89
2022-10-13T01:10:57.990Z,9.90
2022-10-13T01:13:31.079Z,9.91
2022-10-13T01:16:06.717Z,9.90
2022-10-13T01:18:52.411Z,9.89
2022-10-13T01:21:28.828Z,9.84
2022-10-13T01:24:26.569Z,9.82
2022-10-13T01:27:05.093Z,9.81
2022-10-13T01:30:09.405Z,9.78
2022-10-13T01:33:00.006Z,9.77
2022-10-13T01:35:44.313Z,9.77
2022-10-13T01:38:16.533Z,9.78
2022-10-13T01:40:51.211Z,9.80
2022-10-13T01:43:24.249Z,9.81
2022-10-13T01:46:03.690Z,9.83
2022-10-13T01:48:31.117Z,9.87
2022-10-13T01:50:59.750Z,9.89
2022-10-13T01:53:27.293Z,9.90
2022-10-13T01:55:57.269Z,9.91
2022-10-13T01:58:25.933Z,9.93
2022-10-13T02:01:11.319Z,9.93
2022-10-13T02:04:07.629Z,9.91
2022-10-13T02:06:50.180Z,9.91
2022-10-13T02:09:31.969Z,9.91
2022-10-13T02:12:16.823Z,9.91
2022-10-13T02:14:46.817Z,9.89
2022-10-13T02:17:14.329Z,9.88
2022-10-13T02:19:40.813Z,9.88
2022-10-13T02:22:10.984Z,9.90
2022-10-13T02:24:37.579Z,9.89
2022-10-13T02:27:06.591Z,9.90
2022-10-13T02:29:33.131Z,9.90
2022-10-13T02:31:59.631Z,9.89
2022-10-13T02:34:26.253Z,9.91
2022-10-13T02:36:52.645Z,9.90
2022-10-13T02:39:19.009Z,9.90
2022-10-13T02:41:45.381Z,9.90
2022-10-13T02:44:11.808Z,9.93
2022-10-13T02:46:38.177Z,9.96
2022-10-13T02:49:04.592Z,9.98
2022-10-13T02:51:32.451Z,10.02
2022-10-13T02:54:00.472Z,10.04
2022-10-13T02:56:26.852Z,10.07
2022-10-13T02:58:53.625Z,10.09
2022-10-13T03:01:20.032Z,10.10
2022-10-13T03:03:46.408Z,10.11
2022-10-13T03:06:12.894Z,10.11
2022-10-13T03:08:39.275Z,10.11
2022-10-13T03:11:05.762Z,10.08
2022-10-13T03:13:32.195Z,10.09
2022-10-13T03:15:58.645Z,10.07
2022-10-13T03:18:25.898Z,10.05
2022-10-13T03:21:00.368Z,10.03
2022-10-13T03:23:27.198Z,10.02
2022-10-13T03:25:54.098Z,10.01
2022-10-13T03:28:21.455Z,10.01
2022-10-13T03:30:48.199Z,10.00
2022-10-13T03:33:14.726Z,10.01
2022-10-13T03:35:41.166Z,10.02
2022-10-13T03:38:08.112Z,10.03
2022-10-13T03:40:36.365Z,10.03
2022-10-13T03:43:02.728Z,10.02
2022-10-13T03:45:31.280Z,10.03
2022-10-13T03:47:58.184Z,10.04
2022-10-13T03:50:24.549Z,10.04
2022-10-13T03:52:50.907Z,10.05
2022-10-13T03:55:17.346Z,10.08
2022-10-13T03:57:43.703Z,10.10
2022-10-13T04:00:10.854Z,10.11
2022-10-13T04:02:37.258Z,10.11
2022-10-13T04:05:03.827Z,10.13
2022-10-13T04:07:30.369Z,10.13
2022-10-13T04:09:56.731Z,10.16
2022-10-13T04:12:23.469Z,10.17
2022-10-13T04:14:50.309Z,10.16
2022-10-13T04:17:16.688Z,10.18
2022-10-13T04:19:43.144Z,10.19
2022-10-13T04:22:09.542Z,10.19
2022-10-13T04:24:35.985Z,10.22
2022-10-13T04:27:02.418Z,10.21
2022-10-13T04:29:28.868Z,10.23
2022-10-13T04:31:55.467Z,10.24
2022-10-13T04:34:21.877Z,10.25
2022-10-13T04:36:50.561Z,10.27
2022-10-13T04:39:18.131Z,10.30
2022-10-13T04:41:44.520Z,10.33
2022-10-13T04:44:11.156Z,10.34
2022-10-13T04:46:37.592Z,10.35
2022-10-13T04:49:04.745Z,10.34
2022-10-13T04:51:31.214Z,10.35
2022-10-13T04:53:59.234Z,10.37
2022-10-13T04:56:25.923Z,10.38
2022-10-13T04:58:52.351Z,10.38
2022-10-13T05:01:22.598Z,10.39
2022-10-13T05:03:57.803Z,10.38
2022-10-13T05:06:27.293Z,10.39
2022-10-13T05:08:53.806Z,10.39
2022-10-13T05:11:20.803Z,10.40
2022-10-13T05:13:48.424Z,10.37
2022-10-13T05:16:16.731Z,10.38
2022-10-13T05:18:43.270Z,10.38
2022-10-13T05:21:22.196Z,10.38
2022-10-13T05:23:48.820Z,10.38
2022-10-13T05:26:18.411Z,10.39
2022-10-13T05:28:45.568Z,10.41
2022-10-13T05:31:20.493Z,10.43
2022-10-13T05:33:48.395Z,10.45
2022-10-13T05:36:18.029Z,10.46
2022-10-13T05:38:44.834Z,10.47
2022-10-13T05:41:13.742Z,10.50
2022-10-13T05:43:41.675Z,10.51
2022-10-13T05:46:08.771Z,10.53
2022-10-13T05:48:35.615Z,10.56
2022-10-13T05:51:05.278Z,10.57
2022-10-13T05:53:35.730Z,10.56
2022-10-13T05:56:08.500Z,10.53
2022-10-13T05:58:40.392Z,10.48
2022-10-13T06:01:13.227Z,10.45
2022-10-13T06:03:41.972Z,10.44
2022-10-13T06:06:09.554Z,10.44
2022-10-13T06:08:37.331Z,10.45
2022-10-13T06:11:05.416Z,10.45
2022-10-13T06:13:31.836Z,10.44
2022-10-13T06:15:58.225Z,10.45
2022-10-13T06:18:25.030Z,10.45
2022-10-13T06:20:51.501Z,10.43
2022-10-13T06:23:17.912Z,10.45
2022-10-13T06:25:49.247Z,10.46
2022-10-13T06:28:16.445Z,10.46
2022-10-13T06:30:46.837Z,10.46
2022-10-13T06:33:13.805Z,10.47
2022-10-13T06:35:40.207Z,10.49
2022-10-13T06:38:06.602Z,10.52
2022-10-13T06:40:32.971Z,10.53
2022-10-13T06:42:59.339Z,10.55
2022-10-13T06:45:25.739Z,10.57
2022-10-13T06:47:54.222Z,10.58
2022-10-13T06:50:22.167Z,10.58
2022-10-13T06:52:48.647Z,10.60
2022-10-13T06:55:15.145Z,10.62
2022-10-13T06:57:41.540Z,10.64
2022-10-13T07:00:08.905Z,10.68
2022-10-13T07:02:35.358Z,10.71
2022-10-13T07:05:01.750Z,10.76
2022-10-13T07:07:28.203Z,10.79
2022-10-13T07:09:54.700Z,10.84
2022-10-13T07:12:22.487Z,10.90
2022-10-13T07:14:49.109Z,10.98
2022-10-13T07:17:15.544Z,11.03
2022-10-13T07:19:41.972Z,11.09
2022-10-13T07:22:08.433Z,11.16
2022-10-13T07:24:34.805Z,11.22
2022-10-13T07:27:06.757Z,11.30
2022-10-13T07:29:34.278Z,11.37
2022-10-13T07:32:00.716Z,11.44
2022-10-13T07:34:27.098Z,11.52
2022-10-13T07:36:53.530Z,11.62
2022-10-13T07:39:19.900Z,11.70
2022-10-13T07:41:50.777Z,11.78
2022-10-13T07:44:17.727Z,11.87
2022-10-13T07:46:44.199Z,11.96
2022-10-13T07:49:13.704Z,12.05
2022-10-13T07:51:43.282Z,12.13
2022-10-13T07:54:10.104Z,12.19
2022-10-13T07:56:36.580Z,12.23
2022-10-13T07:59:05.187Z,12.28
2022-10-13T08:01:31.751Z,12.28
2022-10-13T08:03:59.243Z,12.31
2022-10-13T08:06:25.742Z,12.34
2022-10-13T08:08:52.894Z,12.37
2022-10-13T08:11:19.309Z,12.40
2022-10-13T08:13:50.560Z,12.44
2022-10-13T08:16:18.106Z,12.46
2022-10-13T08:18:45.409Z,12.48
2022-10-13T08:24:08.896Z,12.54
2022-10-13T08:26:35.285Z,12.57
2022-10-13T08:29:21.880Z,12.56
2022-10-13T08:34:19.770Z,12.53
2022-10-13T08:36:46.313Z,12.53
2022-10-13T08:39:13.928Z,12.57
2022-10-13T08:41:43.965Z,12.64
2022-10-13T08:47:37.921Z,12.87
2022-10-13T08:50:12.491Z,13.00
2022-10-13T08:52:47.981Z,13.12
2022-10-13T08:55:21.657Z,13.15
2022-10-13T08:57:48.308Z,13.13
2022-10-13T09:00:14.913Z,13.23
2022-10-13T09:02:43.967Z,13.34
2022-10-13T09:05:19.760Z,13.48
2022-10-13T09:07:46.350Z,13.60
2022-10-13T09:10:14.536Z,13.72
2022-10-13T09:12:41.054Z,13.80
2022-10-13T09:15:10.335Z,13.81
2022-10-13T09:17:39.476Z,13.87
2022-10-13T09:20:22.741Z,13.96
2022-10-13T09:23:14.023Z,14.16
2022-10-13T09:25:43.178Z,14.19
2022-10-13T09:28:16.891Z,14.36
2022-10-13T09:30:48.521Z,14.52
2022-10-13T09:33:23.447Z,14.60
2022-10-13T09:35:58.582Z,14.69
2022-10-13T09:38:26.514Z,14.61
2022-10-13T09:41:01.639Z,14.60
2022-10-13T09:43:37.449Z,14.64
2022-10-13T09:46:25.451Z,14.77
2022-10-13T09:48:58.705Z,14.83
2022-10-13T09:51:33.988Z,14.73
2022-10-13T09:54:00.549Z,14.69
2022-10-13T09:56:49.140Z,14.67
2022-10-13T09:59:33.004Z,14.63
2022-10-13T10:02:03.853Z,14.64
2022-10-13T10:04:37.671Z,14.72
2022-10-13T10:07:28.822Z,14.65
2022-10-13T10:10:01.731Z,14.67
2022-10-13T10:12:30.728Z,14.66
2022-10-13T10:14:57.152Z,14.73
2022-10-13T10:17:53.822Z,14.77
2022-10-13T10:20:41.792Z,14.78
2022-10-13T10:23:14.075Z,14.82
2022-10-13T10:25:58.602Z,14.93
2022-10-13T10:29:01.741Z,14.97
2022-10-13T10:32:02.378Z,15.02
2022-10-13T10:34:41.614Z,15.03
2022-10-13T10:37:21.112Z,15.16
2022-10-13T10:40:19.974Z,15.29
2022-10-13T10:43:31.740Z,15.42
2022-10-13T10:45:59.934Z,15.61
2022-10-13T10:48:37.742Z,15.68
2022-10-13T10:51:07.613Z,15.92
2022-10-13T10:54:00.378Z,16.07
2022-10-13T10:56:38.824Z,16.16
2022-10-13T10:59:23.788Z,16.19
2022-10-13T11:02:10.886Z,16.32
2022-10-13T11:04:48.257Z,16.36
2022-10-13T11:07:23.423Z,16.62
2022-10-13T11:09:52.873Z,16.66
2022-10-13T11:12:19.497Z,16.84
2022-10-13T11:14:54.903Z,17.18
2022-10-13T11:17:29.457Z,17.59
2022-10-13T11:19:57.044Z,17.98
2022-10-13T11:22:28.487Z,18.16
2022-10-13T11:25:33.450Z,18.21
2022-10-13T11:28:00.135Z,18.19
2022-10-13T11:30:57.321Z,18.05
2022-10-13T11:33:38.717Z,17.82
2022-10-13T11:36:33.078Z,17.92
2022-10-13T11:39:28.352Z,17.91
2022-10-13T11:42:55.519Z,18.20
2022-10-13T11:45:37.354Z,18.38
2022-10-13T11:48:16.787Z,18.45
2022-10-13T11:50:46.276Z,18.59
2022-10-13T11:53:26.502Z,18.68
2022-10-13T11:55:59.637Z,18.69
2022-10-13T11:58:42.656Z,18.65
2022-10-13T12:01:14.470Z,18.79
2022-10-13T12:03:46.689Z,18.98
2022-10-13T12:06:15.875Z,19.31
2022-10-13T12:08:47.668Z,19.45
2022-10-13T12:11:28.841Z,19.62
2022-10-13T12:13:56.200Z,19.59
2022-10-13T12:16:23.031Z,19.41
2022-10-13T12:18:49.572Z,19.36
2022-10-13T12:21:22.564Z,19.34
2022-10-13T12:23:50.924Z,19.19
2022-10-13T12:26:20.652Z,18.99
2022-10-13T12:28:54.377Z,18.90
2022-10-13T12:31:22.616Z,18.72
2022-10-13T12:34:01.149Z,18.69
2022-10-13T12:36:33.578Z,18.65
2022-10-13T12:39:07.443Z,18.51
2022-10-13T12:41:40.637Z,18.43
2022-10-13T12:44:17.190Z,18.45
2022-10-13T12:46:56.107Z,18.38
2022-10-13T12:49:25.518Z,18.35
2022-10-13T12:51:56.146Z,18.29
2022-10-13T12:54:26.481Z,18.28
2022-10-13T12:56:57.424Z,18.29
2022-10-13T12:59:25.584Z,18.20
2022-10-13T13:01:54.185Z,18.18
2022-10-13T13:04:23.393Z,18.15
2022-10-13T13:07:00.862Z,18.11
2022-10-13T13:09:29.466Z,18.10
2022-10-13T13:12:11.338Z,18.04
2022-10-13T13:14:48.333Z,18.06
2022-10-13T13:17:27.704Z,18.03
2022-10-13T13:20:19.704Z,17.95
2022-10-13T13:22:46.170Z,17.87
2022-10-13T13:25:12.580Z,17.83
2022-10-13T13:27:40.121Z,17.78
2022-10-13T13:30:13.265Z,17.80
2022-10-13T13:32:40.436Z,17.79
2022-10-13T13:35:07.860Z,17.73
2022-10-13T13:37:38.758Z,17.67
2022-10-13T13:40:06.974Z,17.59
2022-10-13T13:42:33.580Z,17.58
2022-10-13T13:44:59.945Z,17.56
2022-10-13T13:47:28.397Z,17.51
2022-10-13T13:49:56.386Z,17.47
2022-10-13T13:52:23.916Z,17.42
2022-10-13T13:54:51.083Z,17.40
2022-10-13T13:57:18.280Z,17.35
2022-10-13T13:59:45.343Z,17.33
2022-10-13T14:02:19.020Z,17.32
2022-10-13T14:04:45.819Z,17.31
2022-10-13T14:07:12.881Z,17.33
2022-10-13T14:09:39.512Z,17.34
2022-10-13T14:12:06.059Z,17.38
2022-10-13T14:14:33.065Z,17.40
2022-10-13T14:17:01.275Z,17.42
2022-10-13T14:19:27.743Z,17.39
2022-10-13T14:21:54.168Z,17.35
2022-10-13T14:24:20.783Z,17.31
2022-10-13T14:26:47.333Z,17.26
2022-10-13T14:29:14.061Z,17.23
2022-10-13T14:31:40.801Z,17.18
2022-10-13T14:34:07.344Z,17.16
2022-10-13T14:36:34.493Z,17.11
2022-10-13T14:39:01.125Z,17.07
2022-10-13T14:41:27.749Z,17.00
2022-10-13T14:43:55.427Z,16.94
2022-10-13T14:46:22.762Z,16.92
2022-10-13T14:48:49.583Z,16.92
2022-10-13T14:51:16.480Z,16.88
2022-10-13T14:53:45.464Z,16.88
2022-10-13T14:56:24.098Z,16.89
2022-10-13T14:58:52.582Z,16.87
2022-10-13T15:01:19.104Z,16.83
2022-10-13T15:03:46.440Z,16.80
2022-10-13T15:06:17.792Z,16.77
2022-10-13T15:08:45.125Z,16.74
2022-10-13T15:11:12.326Z,16.71
2022-10-13T15:13:39.548Z,16.70
2022-10-13T15:16:06.852Z,16.65
2022-10-13T15:18:36.026Z,16.64
2022-10-13T15:21:02.798Z,16.62
2022-10-13T15:23:29.218Z,16.58
2022-10-13T15:26:01.172Z,16.57
2022-10-13T15:28:30.384Z,16.51
2022-10-13T15:30:56.879Z,16.45
2022-10-13T15:33:23.311Z,16.44
2022-10-13T15:35:50.978Z,16.41
2022-10-13T15:38:19.276Z,16.38
2022-10-13T15:40:46.072Z,16.33
2022-10-13T15:43:12.783Z,16.28
2022-10-13T15:45:39.584Z,16.24
2022-10-13T15:48:07.704Z,16.22
2022-10-13T15:50:34.753Z,16.19
2022-10-13T15:53:01.199Z,16.16
2022-10-13T15:55:28.638Z,16.15
2022-10-13T15:57:55.081Z,16.15
2022-10-13T16:00:21.562Z,16.13
2022-10-13T16:02:51.100Z,16.11
2022-10-13T16:05:18.834Z,16.09
2022-10-13T16:07:45.280Z,16.05
2022-10-13T16:10:13.445Z,16.03
2022-10-13T16:12:43.313Z,15.98
2022-10-13T16:15:12.323Z,15.92
2022-10-13T16:17:38.715Z,15.84
2022-10-13T16:20:06.396Z,15.78
2022-10-13T16:22:32.862Z,15.73
2022-10-13T16:24:59.321Z,15.72
2022-10-13T16:27:25.792Z,15.69
2022-10-13T16:29:52.197Z,15.69
2022-10-13T16:32:18.964Z,15.68
2022-10-13T16:34:47.901Z,15.66
2022-10-13T16:37:14.292Z,15.64
2022-10-13T16:39:43.796Z,15.61
2022-10-13T16:42:11.876Z,15.59
2022-10-13T16:44:38.384Z,15.58
2022-10-13T16:47:06.379Z,15.51
2022-10-13T16:49:33.767Z,15.50
2022-10-13T16:52:00.413Z,15.48
2022-10-13T16:54:26.832Z,15.46
2022-10-13T16:56:53.243Z,15.44
2022-10-13T16:59:19.908Z,15.44
2022-10-13T17:01:47.252Z,15.45
2022-10-13T17:04:14.811Z,15.45
2022-10-13T17:06:43.705Z,15.45
2022-10-13T17:09:10.769Z,15.45
2022-10-13T17:11:37.351Z,15.43
2022-10-13T17:14:05.351Z,15.42
2022-10-13T17:16:32.816Z,15.41
2022-10-13T17:18:59.701Z,15.39
2022-10-13T17:21:26.085Z,15.35
2022-10-13T17:23:54.744Z,15.31
2022-10-13T17:26:21.184Z,15.26
2022-10-13T17:28:47.787Z,15.21
2022-10-13T17:31:22.751Z,15.22
2022-10-13T17:33:49.825Z,15.17
2022-10-13T17:36:24.900Z,15.20
2022-10-13T17:38:52.683Z,15.16
2022-10-13T17:41:20.088Z,15.14
2022-10-13T17:43:46.565Z,15.14
2022-10-13T17:46:36.227Z,15.13
2022-10-13T17:49:04.372Z,15.11
2022-10-13T17:51:30.820Z,15.10
2022-10-13T17:53:59.525Z,15.11
2022-10-13T17:56:26.701Z,15.11
2022-10-13T17:58:53.394Z,15.13
2022-10-13T18:01:24.915Z,15.14
2022-10-13T18:03:54.468Z,15.11
2022-10-13T18:06:22.255Z,15.08
2022-10-13T18:08:50.300Z,15.09
2022-10-13T18:11:19.003Z,15.10
2022-10-13T18:13:46.760Z,15.08
2022-10-13T18:16:16.763Z,15.08
2022-10-13T18:18:44.942Z,15.07
2022-10-13T18:21:13.477Z,15.08
2022-10-13T18:23:40.241Z,15.05
2022-10-13T18:26:12.823Z,15.06
2022-10-13T18:28:41.078Z,15.07
2022-10-13T18:31:10.729Z,15.08
2022-10-13T18:33:37.169Z,15.08
2022-10-13T18:36:20.256Z,15.08
2022-10-13T18:38:47.641Z,15.08
2022-10-13T18:41:15.477Z,15.08
2022-10-13T18:43:42.281Z,15.07
2022-10-13T18:46:09.241Z,15.07
2022-10-13T18:48:35.994Z,15.04
2022-10-13T18:51:08.153Z,15.05
2022-10-13T18:53:37.931Z,15.05
2022-10-13T18:56:09.070Z,15.04
2022-10-13T18:58:35.578Z,15.03
2022-10-13T19:01:04.309Z,15.02
2022-10-13T19:03:32.648Z,15.01
2022-10-13T19:05:59.267Z,15.01
2022-10-13T19:08:26.796Z,15.01
2022-10-13T19:10:53.246Z,14.99
2022-10-13T19:13:19.656Z,14.98
2022-10-13T19:15:46.321Z,14.97
2022-10-13T19:18:12.857Z,14.96
2022-10-13T19:20:39.434Z,14.94
2022-10-13T19:23:06.180Z,14.92
2022-10-13T19:25:33.352Z,14.90
2022-10-13T19:28:01.288Z,14.91
2022-10-13T19:30:27.902Z,14.88
2022-10-13T19:32:54.440Z,14.88
2022-10-13T19:35:20.865Z,14.88
2022-10-13T19:37:47.285Z,14.89
2022-10-13T19:40:13.799Z,14.88
2022-10-13T19:42:40.178Z,14.88
2022-10-13T19:45:06.990Z,14.88
2022-10-13T19:47:33.389Z,14.87
2022-10-13T19:49:59.783Z,14.82
2022-10-13T19:52:26.292Z,14.82
2022-10-13T19:54:53.060Z,14.81
2022-10-13T19:57:19.836Z,14.79
2022-10-13T19:59:47.826Z,14.80
2022-10-13T20:02:14.620Z,14.80
2022-10-13T20:04:41.067Z,14.81
2022-10-13T20:07:07.469Z,14.81
2022-10-13T20:09:34.303Z,14.82
2022-10-13T20:12:00.655Z,14.82
2022-10-13T20:14:27.039Z,14.83
2022-10-13T20:16:53.506Z,14.83
2022-10-13T20:19:20.133Z,14.81
2022-10-13T20:21:47.968Z,14.82
2022-10-13T20:24:14.370Z,14.81
2022-10-13T20:26:41.004Z,14.80
2022-10-13T20:29:07.479Z,14.81
2022-10-13T20:31:34.565Z,14.80
2022-10-13T20:34:01.017Z,14.79
2022-10-13T20:36:27.996Z,14.79
2022-10-13T20:38:55.119Z,14.77
2022-10-13T20:41:27.040Z,14.78
2022-10-13T20:43:55.968Z,14.76
2022-10-13T20:46:23.888Z,14.75
2022-10-13T20:49:10.448Z,14.75
2022-10-13T20:51:38.005Z,14.73
2022-10-13T20:54:04.478Z,14.74
2022-10-13T20:56:30.925Z,14.73
2022-10-13T20:59:03.044Z,14.72
2022-10-13T21:01:29.429Z,14.70
2022-10-13T21:03:56.014Z,14.66
2022-10-13T21:06:24.297Z,14.66
2022-10-13T21:08:51.521Z,14.62
2022-10-13T21:11:20.165Z,14.60
2022-10-13T21:13:47.257Z,14.58
2022-10-13T21:16:16.716Z,14.57
2022-10-13T21:18:48.853Z,14.56
2022-10-13T21:21:18.455Z,14.54
2022-10-13T21:23:46.011Z,14.52
2022-10-13T21:26:14.389Z,14.51
2022-10-13T21:28:44.076Z,14.50
2022-10-13T21:31:13.169Z,14.49
2022-10-13T21:33:40.898Z,14.47
2022-10-13T21:36:12.011Z,14.43
2022-10-13T21:38:41.524Z,14.41
2022-10-13T21:41:09.910Z,14.41
2022-10-13T21:43:36.344Z,14.38
2022-10-13T21:46:09.724Z,14.38
2022-10-13T21:48:36.805Z,14.36
2022-10-13T21:51:18.809Z,14.35
2022-10-13T21:53:56.194Z,14.35
2022-10-13T21:56:23.956Z,14.35
2022-10-13T21:58:50.509Z,14.34
2022-10-13T22:01:18.771Z,14.34
2022-10-13T22:03:47.070Z,14.33
2022-10-13T22:06:19.391Z,14.34
2022-10-13T22:08:48.655Z,14.32
2022-10-13T22:11:15.696Z,14.33
2022-10-13T22:13:42.503Z,14.30
2022-10-13T22:16:21.050Z,14.29
2022-10-13T22:18:48.286Z,14.28
2022-10-13T22:21:17.780Z,14.28
2022-10-13T22:23:45.348Z,14.26
2022-10-13T22:26:13.060Z,14.27
2022-10-13T22:28:40.030Z,14.26
2022-10-13T22:31:08.331Z,14.27
2022-10-13T22:33:36.140Z,14.27
2022-10-13T22:36:09.792Z,14.26
2022-10-13T22:38:36.195Z,14.25
2022-10-13T22:41:04.109Z,14.22
2022-10-13T22:43:30.558Z,14.20
2022-10-13T22:45:56.989Z,14.20
2022-10-13T22:48:23.395Z,14.19
2022-10-13T22:50:49.852Z,14.19
2022-10-13T22:53:16.265Z,14.19
2022-10-13T22:55:42.667Z,14.18
2022-10-13T22:58:09.099Z,14.18
2022-10-13T23:00:36.029Z,14.17
2022-10-13T23:03:02.723Z,14.16
2022-10-13T23:05:29.178Z,14.15
2022-10-13T23:07:55.697Z,14.14
2022-10-13T23:10:22.130Z,14.14
2022-10-13T23:12:48.572Z,14.15
2022-10-13T23:15:14.997Z,14.17
2022-10-13T23:17:41.352Z,14.17
2022-10-13T23:20:08.788Z,14.18
2022-10-13T23:22:35.179Z,14.20
2022-10-13T23:25:01.620Z,14.21
2022-10-13T23:27:27.986Z,14.22
2022-10-13T23:29:54.371Z,14.23
2022-10-13T23:32:20.748Z,14.23
2022-10-13T23:34:47.101Z,14.23
2022-10-13T23:37:13.463Z,14.24
2022-10-13T23:39:39.851Z,14.23
2022-10-13T23:42:06.261Z,14.23
2022-10-13T23:44:32.714Z,14.24
2022-10-13T23:46:59.104Z,14.24
2022-10-13T23:49:25.476Z,14.25
2022-10-13T23:51:52.121Z,14.25
2022-10-13T23:54:18.549Z,14.26
2022-10-13T23:56:44.941Z,14.26
2022-10-13T23:59:11.327Z,14.27
